Time;durP1;ratioP1;P1;durP2;ratioP2;P2;SDS_P1;SDS_P2;PMS_P1;PMS_P2;Temp;Humidity;BMP_temperature;BMP_pressure;BME280_temperature;BME280_humidity;BME280_pressure;Samples;Min_cycle;Max_cycle;Signal;HPM_P1;HPM_P2
2021/01/21 00:02:06;;;;;;;5.17;4.87;;;1.20;99.90;;;1.97;89.42;96562.28;5254490;28;20197;-79
2021/01/21 00:04:38;;;;;;;4.97;4.67;;;1.30;99.90;;;2.02;89.84;96555.91;5252159;28;20247;-79
2021/01/21 00:07:10;;;;;;;5.40;4.40;;;1.30;99.90;;;2.07;90.06;96531.91;5254790;28;20588;-79
2021/01/21 00:09:42;;;;;;;4.43;4.03;;;1.40;99.90;;;2.11;89.93;96548.97;5251445;28;20207;-78
2021/01/21 00:12:14;;;;;;;5.57;5.07;;;1.40;99.90;;;2.15;89.19;96548.44;5254855;28;20210;-79
2021/01/21 00:14:46;;;;;;;5.17;4.70;;;1.40;99.90;;;2.11;89.66;96541.41;5255338;28;20220;-79
2021/01/21 00:17:19;;;;;;;5.30;4.67;;;1.40;99.90;;;2.18;88.71;96548.63;5255675;28;20212;-79
2021/01/21 00:19:51;;;;;;;5.40;5.00;;;1.50;99.90;;;2.20;89.35;96542.06;5234871;28;20227;-79
2021/01/21 00:22:23;;;;;;;5.00;4.60;;;1.50;99.90;;;2.25;89.31;96544.88;5248264;28;20365;-79
2021/01/21 00:24:55;;;;;;;4.43;4.13;;;1.50;99.90;;;2.24;88.65;96541.47;5254138;28;20230;-79
2021/01/21 00:27:28;;;;;;;4.47;4.17;;;1.40;99.90;;;2.23;89.18;96547.31;5244773;28;20203;-79
2021/01/21 00:30:00;;;;;;;4.20;3.90;;;1.40;99.90;;;2.22;89.02;96548.06;5240266;28;20190;-78
2021/01/21 00:32:33;;;;;;;4.23;3.93;;;1.40;99.90;;;2.22;89.36;96553.09;5254793;28;20557;-79
2021/01/21 00:35:06;;;;;;;3.30;3.10;;;1.30;99.90;;;2.17;89.22;96566.16;5252700;28;20235;-79
2021/01/21 00:37:38;;;;;;;3.37;3.17;;;1.30;99.90;;;2.21;88.95;96563.97;5255197;28;20224;-79
2021/01/21 00:40:12;;;;;;;3.30;3.10;;;1.40;99.90;;;2.20;89.27;96573.94;5254465;28;20580;-79
2021/01/21 00:42:44;;;;;;;3.67;3.47;;;1.30;99.90;;;2.19;89.70;96579.75;5254746;28;20200;-79
2021/01/21 00:45:16;;;;;;;4.17;3.87;;;1.40;99.90;;;2.23;89.27;96581.69;5254855;28;20221;-79
2021/01/21 00:47:50;;;;;;;4.13;3.93;;;1.30;99.90;;;2.23;88.55;96576.66;5255090;28;20195;-79
2021/01/21 00:50:22;;;;;;;4.73;4.37;;;1.30;99.90;;;2.18;88.89;96573.84;5253882;28;20200;-79
2021/01/21 00:52:54;;;;;;;3.93;3.60;;;1.30;99.90;;;2.12;89.44;96563.34;5252183;28;20303;-79
2021/01/21 00:55:26;;;;;;;4.60;3.83;;;1.30;99.90;;;2.07;89.47;96549.56;5249274;28;20612;-79
2021/01/21 00:57:58;;;;;;;3.90;3.60;;;1.30;99.90;;;2.08;89.19;96555.47;5251299;28;20229;-79
2021/01/21 01:00:31;;;;;;;3.80;3.50;;;1.30;99.90;;;2.13;89.44;96554.13;5252256;28;20205;-79
2021/01/21 01:03:05;;;;;;;4.10;3.80;;;1.30;99.90;;;2.07;89.27;96557.13;5249881;28;20203;-79
2021/01/21 01:05:37;;;;;;;3.50;3.30;;;1.30;99.90;;;2.07;90.56;96559.63;5250086;28;20210;-79
2021/01/21 01:08:11;;;;;;;4.27;3.97;;;1.30;99.90;;;2.05;89.92;96571.25;5250558;28;20204;-79
2021/01/21 01:10:43;;;;;;;3.97;3.67;;;1.30;99.90;;;2.10;89.34;96569.91;5249592;28;20200;-79
2021/01/21 01:13:15;;;;;;;3.60;3.40;;;1.30;99.90;;;2.09;89.42;96565.66;5242862;28;20200;-79
2021/01/21 01:15:47;;;;;;;3.87;3.67;;;1.30;99.90;;;2.13;90.47;96562.56;5250639;28;20214;-78
2021/01/21 01:18:20;;;;;;;3.90;3.70;;;1.30;99.90;;;2.08;89.39;96541.22;5250791;28;20224;-79
2021/01/21 01:20:52;;;;;;;4.37;4.03;;;1.30;99.90;;;2.07;89.19;96548.69;5250533;28;20279;-79
2021/01/21 01:23:24;;;;;;;4.03;3.73;;;1.30;99.90;;;2.06;89.98;96532.69;5249855;28;20584;-78
2021/01/21 01:25:56;;;;;;;4.40;4.10;;;1.30;99.90;;;2.15;89.30;96525.75;5250364;28;20725;-79
2021/01/21 01:28:28;;;;;;;5.13;3.83;;;1.30;99.90;;;2.27;88.47;96517.25;5251368;28;20197;-78
2021/01/21 01:31:00;;;;;;;5.10;4.60;;;1.40;99.90;;;2.19;89.03;96521.78;5250574;28;20293;-79
2021/01/21 01:33:32;;;;;;;4.97;4.57;;;1.50;99.90;;;2.19;89.00;96520.13;5249256;28;20200;-79
2021/01/21 01:36:06;;;;;;;4.60;4.30;;;1.50;99.90;;;2.25;88.14;96529.75;5250925;28;20199;-80
2021/01/21 01:38:38;;;;;;;4.47;4.07;;;1.50;99.90;;;2.27;88.36;96533.25;5249504;28;20224;-78
2021/01/21 01:41:10;;;;;;;4.30;4.00;;;1.50;99.90;;;2.21;88.35;96537.91;5250083;28;20241;-80
2021/01/21 01:43:42;;;;;;;4.60;4.30;;;1.50;99.90;;;2.27;88.25;96542.47;5251424;28;20201;-79
2021/01/21 01:46:15;;;;;;;4.03;3.73;;;1.60;99.90;;;2.31;88.76;96539.38;5250624;28;20203;-79
2021/01/21 01:48:47;;;;;;;4.60;4.30;;;1.60;99.90;;;2.29;88.61;96531.72;5250987;28;20207;-79
2021/01/21 01:51:19;;;;;;;4.20;3.90;;;1.60;99.90;;;2.31;88.12;96524.25;5250412;28;20646;-79
2021/01/21 01:53:52;;;;;;;4.40;4.10;;;1.60;99.90;;;2.26;88.37;96506.28;5248235;28;20739;-79
2021/01/21 01:56:25;;;;;;;4.00;3.80;;;1.60;99.90;;;2.34;88.15;96499.25;5249994;28;20684;-78
2021/01/21 01:58:57;;;;;;;3.83;3.63;;;1.60;99.90;;;2.24;89.01;96483.50;5250894;28;20222;-79
2021/01/21 02:01:29;;;;;;;3.63;3.40;;;1.60;99.90;;;2.30;88.11;96488.09;5250427;28;20190;-79
2021/01/21 02:04:02;;;;;;;3.53;3.33;;;1.60;99.90;;;2.32;88.95;96486.56;5250589;28;20220;-79
2021/01/21 02:06:34;;;;;;;3.47;3.27;;;1.60;99.90;;;2.32;87.93;96495.72;5249828;28;20212;-79
2021/01/21 02:09:06;;;;;;;3.60;3.40;;;1.50;99.90;;;2.32;87.70;96500.78;5248296;28;20197;-79
2021/01/21 02:11:57;;;;;;;3.60;3.40;;;1.50;99.90;;;2.28;88.77;96497.19;5249848;28;20204;-80
2021/01/21 02:14:41;;;;;;;3.43;3.23;;;1.50;99.90;;;2.21;88.43;96480.78;5250715;28;20285;-79
2021/01/21 02:17:21;;;;;;;3.70;3.33;;;1.40;99.90;;;2.20;89.47;96490.75;5250450;28;20200;-79
2021/01/21 02:20:30;;;;;;;3.20;3.10;;;1.40;99.90;;;2.27;88.55;96487.88;5249051;28;20203;-80
2021/01/21 02:24:00;;;;;;;3.80;3.50;;;1.50;99.90;;;2.28;88.40;96473.63;5249820;28;20202;-78
2021/01/21 02:26:37;;;;;;;3.33;3.03;;;1.50;99.90;;;2.29;89.30;96460.25;5236082;28;20615;-78
2021/01/21 02:29:12;;;;;;;4.43;4.13;;;1.50;99.90;;;2.28;89.08;96463.53;5248815;28;20198;-79
2021/01/21 02:32:34;;;;;;;4.10;3.87;;;1.60;99.90;;;2.39;89.56;96462.59;5249224;28;20206;-80
2021/01/21 02:35:13;;;;;;;3.60;3.40;;;1.70;99.90;;;2.45;89.00;96473.09;5248863;28;20310;-78
2021/01/21 02:37:53;;;;;;;3.40;3.10;;;1.80;99.90;;;2.52;89.74;96472.72;5248426;28;20224;-79
2021/01/21 02:40:26;;;;;;;3.87;3.67;;;1.80;99.90;;;2.56;89.48;96479.69;5246628;28;20680;-79
2021/01/21 02:42:58;;;;;;;4.00;3.80;;;1.80;99.90;;;2.70;88.05;96484.00;5234136;28;20676;-79
2021/01/21 02:45:31;;;;;;;3.43;3.23;;;1.90;99.90;;;2.73;87.99;96482.44;5239296;28;20219;-78
2021/01/21 02:48:04;;;;;;;3.73;3.43;;;1.80;99.90;;;2.66;87.58;96479.53;5248134;28;20571;-78
2021/01/21 02:50:40;;;;;;;3.93;3.70;;;1.80;99.90;;;2.61;87.70;96465.75;5249963;28;20201;-79
2021/01/21 02:53:12;;;;;;;4.03;3.67;;;1.80;99.90;;;2.58;87.52;96458.00;5246690;28;20210;-79
2021/01/21 02:55:54;;;;;;;3.30;3.10;;;1.80;99.90;;;2.58;88.48;96452.06;5245397;28;20703;-79
2021/01/21 02:58:35;;;;;;;3.70;3.50;;;1.80;99.90;;;2.56;88.33;96451.97;5249100;28;20231;-79
2021/01/21 03:01:09;;;;;;;3.20;3.00;;;1.80;99.90;;;2.68;88.72;96452.75;5249671;28;20196;-78
2021/01/21 03:03:43;;;;;;;3.87;3.67;;;1.80;99.90;;;2.64;88.63;96453.34;5248582;28;20269;-79
2021/01/21 03:06:18;;;;;;;3.47;3.27;;;1.80;99.90;;;2.58;88.70;96452.06;5249538;28;20206;-79
2021/01/21 03:08:51;;;;;;;3.00;2.90;;;1.80;99.90;;;2.57;88.61;96448.66;5247523;28;20198;-79
2021/01/21 03:11:22;;;;;;;3.33;3.13;;;1.80;99.90;;;2.54;88.92;96438.38;5247323;28;20200;-79
2021/01/21 03:13:55;;;;;;;3.40;3.20;;;1.80;99.90;;;2.57;89.23;96422.56;5249360;28;20223;-79
2021/01/21 03:16:27;;;;;;;3.57;3.37;;;1.90;99.90;;;2.60;89.73;96423.63;5247950;28;20198;-79
2021/01/21 03:18:59;;;;;;;4.67;4.33;;;1.90;99.90;;;2.68;89.01;96416.56;5247601;28;20219;-80
2021/01/21 03:21:33;;;;;;;6.83;6.13;;;2.00;99.90;;;2.78;89.48;96418.91;5244768;28;20334;-79
2021/01/21 03:24:06;;;;;;;5.43;5.03;;;2.10;99.90;;;3.00;87.56;96436.25;5243156;28;20213;-80
2021/01/21 03:26:38;;;;;;;4.23;3.83;;;2.20;99.90;;;2.97;87.26;96441.09;5248328;28;20201;-78
2021/01/21 03:29:10;;;;;;;3.30;3.10;;;2.10;99.90;;;3.05;86.73;96454.22;5248153;28;20266;-79
2021/01/21 03:31:42;;;;;;;3.57;3.27;;;2.20;99.90;;;3.01;87.40;96455.69;5245549;28;20203;-79
2021/01/21 03:34:14;;;;;;;3.70;3.40;;;2.20;99.90;;;2.97;87.41;96453.72;5246751;28;20696;-78
2021/01/21 03:36:47;;;;;;;3.10;2.90;;;2.10;99.90;;;2.92;86.99;96465.19;5247545;28;20200;-79
2021/01/21 03:39:19;;;;;;;3.73;3.47;;;2.10;99.90;;;2.93;87.26;96451.78;5246510;28;20235;-79
2021/01/21 03:41:52;;;;;;;3.93;3.63;;;2.10;99.90;;;2.97;87.13;96425.97;5247184;28;20631;-79
2021/01/21 03:44:24;;;;;;;4.00;3.70;;;2.10;99.90;;;2.96;87.64;96414.13;5248979;28;20213;-80
2021/01/21 03:46:56;;;;;;;4.00;3.70;;;2.20;99.90;;;2.97;87.39;96405.78;5249290;28;20223;-79
2021/01/21 03:49:29;;;;;;;3.33;3.20;;;2.20;99.90;;;2.94;87.71;96386.25;5248555;28;20283;-79
2021/01/21 03:52:02;;;;;;;4.40;4.00;;;2.20;99.90;;;3.00;87.35;96378.19;5247267;28;20718;-79
2021/01/21 03:54:34;;;;;;;4.60;3.43;;;2.20;99.90;;;3.11;86.43;96383.91;5246679;28;20217;-79
2021/01/21 03:57:06;;;;;;;4.03;3.37;;;2.30;99.90;;;3.19;85.62;96386.91;5247554;28;20201;-79
2021/01/21 03:59:38;;;;;;;3.90;3.70;;;2.40;99.90;;;3.27;85.99;96400.88;5248526;28;20221;-79
2021/01/21 04:02:10;;;;;;;3.37;3.13;;;2.50;99.90;;;3.49;83.81;96398.88;5246802;28;20259;-79
2021/01/21 04:04:42;;;;;;;3.53;3.27;;;2.70;99.90;;;3.66;82.51;96387.22;5245761;28;20712;-79
2021/01/21 04:07:15;;;;;;;3.33;3.00;;;2.90;99.90;;;3.82;80.64;96389.03;5247319;28;20216;-79
2021/01/21 04:09:47;;;;;;;4.00;3.70;;;3.10;99.90;;;4.29;76.40;96379.13;5245204;28;20196;-79
2021/01/21 04:12:19;;;;;;;4.13;3.83;;;3.50;99.90;;;4.15;77.73;96389.22;5246767;28;20198;-79
2021/01/21 04:14:51;;;;;;;4.53;4.13;;;3.50;99.90;;;4.11;78.11;96377.22;5247509;28;20232;-79
2021/01/21 04:17:23;;;;;;;4.23;3.83;;;3.40;99.90;;;4.04;78.82;96381.03;5246813;28;20203;-79
2021/01/21 04:19:55;;;;;;;4.07;3.77;;;3.40;99.90;;;3.99;79.47;96375.72;5246047;28;20210;-79
2021/01/21 04:22:28;;;;;;;4.60;4.20;;;3.40;99.90;;;3.94;79.91;96364.47;5246916;28;20206;-80
2021/01/21 04:25:00;;;;;;;4.53;4.13;;;3.30;99.90;;;3.95;80.11;96375.44;5246182;28;20218;-79
2021/01/21 04:27:32;;;;;;;3.97;3.67;;;3.20;99.90;;;3.86;80.67;96370.72;5247670;28;20205;-79
2021/01/21 04:30:18;;;;;;;4.03;3.73;;;3.10;99.90;;;3.81;80.95;96378.03;5250881;28;20288;-79
2021/01/21 04:32:50;;;;;;;4.63;4.23;;;3.00;99.90;;;3.87;81.15;96371.63;5251192;28;20216;-79
2021/01/21 04:35:22;;;;;;;5.40;5.00;;;2.90;99.90;;;3.72;81.60;96361.47;5250229;28;20225;-79
2021/01/21 04:37:55;;;;;;;4.93;4.37;;;2.80;99.90;;;3.64;82.07;96352.59;5250945;28;20309;-80
2021/01/21 04:40:27;;;;;;;4.60;4.30;;;2.80;99.90;;;3.61;82.37;96354.13;5249639;28;20191;-78
2021/01/21 04:42:59;;;;;;;4.80;4.40;;;2.80;99.90;;;3.67;82.24;96365.41;5250884;28;20202;-79
2021/01/21 04:45:32;;;;;;;4.40;4.10;;;2.90;99.90;;;3.88;80.67;96351.47;5252047;28;20223;-79
2021/01/21 04:48:07;;;;;;;4.47;4.13;;;3.00;99.90;;;3.85;80.50;96363.94;5249110;28;20192;-80
2021/01/21 04:50:40;;;;;;;4.17;3.87;;;3.10;99.90;;;3.93;79.48;96367.78;5250462;28;20202;-80
2021/01/21 04:53:16;;;;;;;3.47;3.27;;;3.20;99.90;;;4.09;79.14;96381.28;5249233;28;20207;-79
2021/01/21 04:55:56;;;;;;;3.80;3.50;;;3.40;99.90;;;4.23;78.36;96388.00;5250608;28;20229;-79
2021/01/21 04:58:31;;;;;;;3.77;3.47;;;3.50;99.90;;;4.25;78.35;96381.41;5251448;28;20229;-81
2021/01/21 05:01:04;;;;;;;4.63;4.27;;;3.60;99.90;;;4.26;77.90;96378.06;5250696;28;20204;-79
2021/01/21 05:03:36;;;;;;;3.73;3.20;;;3.60;99.90;;;4.25;78.23;96381.41;5249132;28;20624;-78
2021/01/21 05:06:09;;;;;;;3.33;3.03;;;3.60;99.90;;;4.40;77.79;96379.72;5251231;28;20203;-80
2021/01/21 05:08:43;;;;;;;3.77;3.17;;;3.60;99.90;;;4.43;77.02;96372.31;5248407;28;20201;-79
2021/01/21 05:11:15;;;;;;;3.70;3.40;;;3.70;99.90;;;4.41;77.43;96368.84;5249510;28;20798;-79
2021/01/21 05:13:47;;;;;;;2.90;2.70;;;3.70;99.90;;;4.45;77.65;96365.69;5250737;28;20227;-78
2021/01/21 05:16:19;;;;;;;2.67;2.57;;;3.70;99.90;;;4.55;76.68;96367.09;5251148;28;20295;-79
2021/01/21 05:18:54;;;;;;;2.67;2.57;;;3.80;99.90;;;4.61;76.66;96361.50;5249026;28;20224;-79
2021/01/21 05:21:26;;;;;;;2.60;2.50;;;3.90;99.90;;;4.66;75.51;96365.13;5248140;28;20206;-78
2021/01/21 05:24:00;;;;;;;3.17;2.97;;;4.00;99.90;;;4.70;75.21;96362.00;5249031;28;20221;-79
2021/01/21 05:26:32;;;;;;;4.30;3.90;;;4.10;99.90;;;4.83;74.00;96361.00;5247057;28;20553;-79
2021/01/21 05:29:05;;;;;;;3.40;3.10;;;4.20;99.90;;;4.90;73.90;96358.88;5245664;28;20669;-79
2021/01/21 05:31:38;;;;;;;3.43;3.13;;;4.30;99.90;;;5.00;72.84;96366.97;5250507;28;20196;-79
2021/01/21 05:34:17;;;;;;;3.20;3.00;;;4.40;99.90;;;5.04;72.31;96373.97;5249524;28;20242;-79
2021/01/21 05:36:49;;;;;;;3.30;3.10;;;4.50;99.90;;;5.11;70.36;96381.09;5249425;28;20288;-79
2021/01/21 05:39:22;;;;;;;2.87;2.70;;;4.60;99.90;;;5.19;71.57;96379.84;5248711;28;20306;-79
2021/01/21 05:41:54;;;;;;;2.90;2.67;;;4.60;99.90;;;5.26;71.05;96386.09;5249677;28;20669;-79
2021/01/21 05:44:27;;;;;;;2.60;2.50;;;4.70;99.90;;;5.52;69.73;96387.47;5249812;28;20216;-79
2021/01/21 05:47:03;;;;;;;2.57;2.47;;;4.90;99.90;;;5.47;70.33;96383.84;5250198;28;20188;-81
2021/01/21 05:49:36;;;;;;;2.37;2.20;;;4.80;99.90;;;5.43;71.51;96383.66;5250086;28;20208;-79
2021/01/21 05:52:08;;;;;;;2.83;2.70;;;4.80;99.90;;;5.40;71.94;96382.63;5249384;28;20208;-79
2021/01/21 05:54:41;;;;;;;2.70;2.60;;;4.70;99.90;;;5.34;71.66;96373.03;5248998;28;20584;-79
2021/01/21 05:57:14;;;;;;;2.60;2.50;;;4.70;99.90;;;5.38;70.92;96371.56;5250428;28;20200;-79
2021/01/21 05:59:47;;;;;;;2.47;2.27;;;4.70;99.90;;;5.42;69.75;96383.59;5248219;28;20217;-79
2021/01/21 06:02:19;;;;;;;2.37;2.20;;;4.80;99.90;;;5.49;69.55;96382.22;5242003;28;20199;-78
2021/01/21 06:04:52;;;;;;;2.67;2.47;;;4.90;99.90;;;5.47;69.95;96378.78;5243432;28;20700;-79
2021/01/21 06:07:24;;;;;;;3.13;2.70;;;4.90;99.90;;;5.51;70.66;96389.13;5247233;28;20200;-79
2021/01/21 06:09:58;;;;;;;2.50;2.30;;;4.80;99.90;;;5.43;71.03;96390.38;5248192;28;20199;-79
2021/01/21 06:12:33;;;;;;;2.20;2.10;;;4.70;99.90;;;5.43;70.18;96392.91;5240081;28;20200;-79
2021/01/21 06:15:09;;;;;;;2.47;2.30;;;4.70;99.90;;;5.52;70.58;96405.19;5248908;28;20296;-79
2021/01/21 06:17:42;;;;;;;2.17;2.07;;;4.80;99.90;;;5.52;70.51;96405.19;5248161;28;20204;-78
2021/01/21 06:20:16;;;;;;;1.90;1.90;;;4.80;99.90;;;5.51;70.91;96416.13;5251871;28;20201;-79
2021/01/21 06:22:49;;;;;;;2.60;2.50;;;4.80;99.90;;;5.53;71.18;96412.03;5243121;28;20238;-79
2021/01/21 06:25:22;;;;;;;2.07;1.97;;;4.80;99.90;;;5.60;71.01;96421.69;5248676;28;20222;-79
2021/01/21 06:27:55;;;;;;;2.43;2.23;;;4.90;99.90;;;5.57;71.32;96413.91;5247940;28;20193;-78
2021/01/21 06:30:29;;;;;;;2.40;2.30;;;4.80;99.90;;;5.54;71.75;96413.75;5249935;28;20192;-79
2021/01/21 06:33:04;;;;;;;2.90;2.70;;;4.80;99.90;;;5.62;70.94;96417.56;5248803;28;20200;-80
2021/01/21 06:35:41;;;;;;;3.70;3.40;;;4.80;99.90;;;5.93;68.04;96404.84;5245210;28;20220;-80
2021/01/21 06:38:16;;;;;;;3.20;2.90;;;5.00;99.90;;;6.08;66.29;96409.84;5244287;28;20258;-80
2021/01/21 06:40:53;;;;;;;3.73;3.43;;;5.30;99.90;;;6.03;67.19;96411.25;5246159;28;20212;-80
2021/01/21 06:43:32;;;;;;;3.10;2.90;;;5.30;99.90;;;6.23;65.14;96412.25;5246787;28;20197;-79
2021/01/21 06:46:06;;;;;;;3.07;2.87;;;5.50;99.90;;;6.41;63.29;96424.97;5247699;28;20266;-78
2021/01/21 06:48:38;;;;;;;3.13;2.67;;;5.70;99.90;;;6.54;62.41;96417.19;5247419;28;20193;-79
2021/01/21 06:51:12;;;;;;;2.97;2.77;;;5.90;99.90;;;6.80;60.89;96417.56;5239183;28;20228;-81
2021/01/21 06:53:47;;;;;;;2.50;2.40;;;6.20;99.90;;;6.90;61.19;96418.09;5239980;28;20205;-79
2021/01/21 06:56:30;;;;;;;2.90;2.70;;;6.30;99.90;;;6.95;61.52;96421.72;5247021;28;20202;-78
2021/01/21 06:59:02;;;;;;;2.67;2.57;;;6.30;99.90;;;7.07;60.70;96426.53;5247355;28;20208;-80
2021/01/21 07:01:46;;;;;;;2.70;2.50;;;6.30;99.90;;;7.28;58.73;96415.63;5246440;28;20196;-80
2021/01/21 07:04:27;;;;;;;2.67;2.50;;;6.50;99.90;;;7.28;58.75;96425.78;5239817;28;20221;-80
2021/01/21 07:07:14;;;;;;;2.90;2.60;;;6.60;99.90;;;7.23;59.70;96423.88;5246443;28;20211;-79
2021/01/21 07:09:47;;;;;;;2.33;2.23;;;6.60;99.90;;;7.36;58.80;96421.91;5242236;28;20204;-79
2021/01/21 07:12:22;;;;;;;2.33;2.23;;;6.70;99.90;;;7.52;56.66;96415.84;5246725;28;20196;-79
2021/01/21 07:14:54;;;;;;;1.90;1.90;;;6.90;99.90;;;7.74;55.54;96431.25;5247103;28;20215;-79
2021/01/21 07:17:29;;;;;;;2.47;2.30;;;7.20;99.90;;;7.81;56.00;96409.50;5246237;28;20206;-79
2021/01/21 07:20:04;;;;;;;2.47;2.27;;;7.30;99.90;;;8.00;55.55;96414.59;5245278;28;20220;-79
2021/01/21 07:22:45;;;;;;;2.20;2.10;;;7.40;99.90;;;8.17;53.79;96409.38;5239481;28;20214;-79
2021/01/21 07:25:30;;;;;;;2.77;2.50;;;7.70;99.90;;;8.19;55.82;96417.94;5241566;28;20672;-79
2021/01/21 07:28:10;;;;;;;2.30;2.20;;;7.70;99.90;;;8.31;54.34;96413.38;5246309;28;20208;-80
2021/01/21 07:31:02;;;;;;;1.77;1.67;;;7.80;99.90;;;8.63;54.71;96418.97;5247717;28;20200;-80
2021/01/21 07:33:35;;;;;;;1.80;1.70;;;8.20;99.90;;;8.68;55.71;96425.13;5245116;28;20195;-79
2021/01/21 07:36:30;;;;;;;2.07;1.97;;;8.30;99.90;;;8.77;54.98;96431.44;5245171;28;20196;-79
2021/01/21 07:39:01;;;;;;;1.70;1.60;;;8.30;99.90;;;8.70;55.49;96443.88;5244879;28;20312;-79
2021/01/21 07:41:55;;;;;;;1.67;1.57;;;8.10;99.90;;;8.66;56.10;96436.91;5245758;28;20409;-79
2021/01/21 07:44:56;;;;;;;1.57;1.47;;;8.00;99.90;;;8.75;55.82;96435.59;5246500;28;20224;-79
2021/01/21 07:47:31;;;;;;;2.10;2.00;;;8.30;99.90;;;8.88;56.57;96433.56;5245746;28;20196;-79
2021/01/21 07:50:37;;;;;;;2.10;2.00;;;8.30;99.90;;;8.87;57.40;96427.63;5246893;28;20192;-79
2021/01/21 07:53:21;;;;;;;2.07;1.97;;;8.20;99.90;;;8.85;57.34;96436.88;5226617;28;20198;-79
2021/01/21 07:55:54;;;;;;;2.08;1.95;;;8.20;99.90;;;8.89;57.74;96425.09;5246039;28;20295;-79
2021/01/21 07:58:30;;;;;;;1.83;1.77;;;8.20;99.90;;;9.07;56.08;96420.75;5245999;28;20223;-79
2021/01/21 08:01:07;;;;;;;1.85;1.75;;;8.40;99.90;;;9.12;57.16;96418.38;5245703;28;20294;-79
2021/01/21 08:03:42;;;;;;;1.90;1.90;;;8.50;99.90;;;9.15;56.65;96408.28;5239721;28;20200;-80
2021/01/21 08:06:17;;;;;;;1.90;1.80;;;8.60;99.90;;;9.42;55.46;96411.91;5230062;28;20224;-80
2021/01/21 08:08:51;;;;;;;2.13;2.00;;;8.80;99.90;;;9.58;53.96;96409.94;5245434;28;20294;-79
2021/01/21 08:11:24;;;;;;;2.23;2.13;;;9.00;99.90;;;9.67;54.40;96402.59;5248912;28;20196;-80
2021/01/21 08:14:00;;;;;;;1.92;1.77;;;9.10;99.90;;;9.59;55.59;96402.34;5250412;28;20220;-79
2021/01/21 08:16:33;;;;;;;1.73;1.63;;;9.10;99.90;;;9.70;55.53;96401.06;5244076;28;20826;-79
2021/01/21 08:19:06;;;;;;;1.87;1.77;;;9.00;99.90;;;9.69;55.41;96399.31;5248893;28;20216;-79
2021/01/21 08:21:39;;;;;;;1.73;1.67;;;9.10;99.90;;;9.71;55.90;96404.47;5249467;28;20704;-79
2021/01/21 08:24:11;;;;;;;1.88;1.80;;;9.00;99.90;;;9.87;52.78;96401.69;5249698;28;20231;-79
2021/01/21 08:26:43;;;;;;;1.90;1.80;;;9.30;99.90;;;10.03;52.95;96389.44;5249768;28;20569;-81
2021/01/21 08:29:15;;;;;;;2.10;2.00;;;9.40;99.90;;;9.97;54.29;96391.78;5250477;28;20207;-79
2021/01/21 08:31:50;;;;;;;1.92;1.83;;;9.30;99.90;;;10.12;52.39;96394.88;5250873;28;20228;-79
2021/01/21 08:34:24;;;;;;;2.03;1.92;;;9.60;99.90;;;10.10;54.33;96386.28;5249446;28;20239;-80
2021/01/21 08:37:03;;;;;;;1.70;1.60;;;9.60;99.90;;;10.14;53.37;96383.03;5247022;28;20299;-78
2021/01/21 08:39:36;;;;;;;1.90;1.80;;;9.40;99.90;;;10.14;53.93;96388.13;5248967;28;20228;-80
2021/01/21 08:42:10;;;;;;;2.20;2.10;;;9.40;99.90;;;10.05;54.74;96392.94;5249696;28;20192;-79
2021/01/21 08:44:42;;;;;;;1.63;1.52;;;9.40;99.90;;;10.13;54.90;96388.97;5250094;28;20239;-79
2021/01/21 08:47:15;;;;;;;1.98;1.88;;;9.40;99.90;;;10.36;53.70;96392.34;5249466;28;20207;-79
2021/01/21 08:49:52;;;;;;;2.00;1.90;;;9.50;99.90;;;10.32;54.55;96383.69;5231348;28;20193;-81
2021/01/21 08:52:24;;;;;;;2.28;2.17;;;9.60;99.90;;;10.48;53.05;96385.09;5239283;28;20668;-79
2021/01/21 08:54:56;;;;;;;1.85;1.77;;;9.90;99.90;;;10.63;53.23;96389.81;5249961;28;20574;-79
2021/01/21 08:57:28;;;;;;;2.25;2.10;;;10.00;99.90;;;10.64;53.25;96395.78;5249673;28;20680;-79
2021/01/21 09:00:14;;;;;;;1.70;1.60;;;10.10;99.90;;;10.67;53.82;96393.34;5249752;28;20689;-79
2021/01/21 09:02:47;;;;;;;1.90;1.90;;;10.10;99.90;;;10.76;52.62;96381.75;5241638;28;20201;-80
2021/01/21 09:05:19;;;;;;;1.70;1.70;;;10.20;99.90;;;10.78;53.35;96385.19;5230381;28;20307;-79
2021/01/21 09:07:52;;;;;;;2.00;1.90;;;10.20;99.90;;;10.78;53.63;96374.97;5246523;28;20296;-79
2021/01/21 09:10:24;;;;;;;2.75;2.55;;;10.10;99.90;;;10.87;53.48;96381.22;5248793;28;20193;-78
2021/01/21 09:13:00;;;;;;;6.30;5.03;;;10.20;99.90;;;10.91;53.27;96380.50;5247122;28;20197;-78
2021/01/21 09:15:58;;;;;;;5.43;4.50;;;10.20;99.90;;;10.90;53.21;96384.75;5247840;28;20220;-81
2021/01/21 09:18:47;;;;;;;7.15;6.18;;;10.40;99.90;;;11.04;52.58;96387.72;5249439;28;20216;-79
2021/01/21 09:21:19;;;;;;;2.00;1.88;;;10.50;99.90;;;11.10;53.16;96395.56;5248769;28;20196;-78
2021/01/21 09:24:06;;;;;;;3.53;3.22;;;10.50;99.90;;;11.23;53.91;96389.16;5248226;28;20238;-79
2021/01/21 09:26:38;;;;;;;1.92;1.83;;;10.60;99.90;;;11.55;52.53;96384.13;5249347;28;20204;-79
2021/01/21 09:29:10;;;;;;;2.03;1.92;;;11.10;99.90;;;11.69;53.27;96391.38;5248580;28;20199;-79
2021/01/21 09:31:42;;;;;;;1.75;1.75;;;11.30;99.90;;;11.81;52.62;96397.69;5249446;28;20209;-80
2021/01/21 09:34:15;;;;;;;2.00;1.80;;;11.30;99.90;;;11.82;52.68;96395.19;5228450;28;20731;-80
2021/01/21 09:36:47;;;;;;;2.20;2.03;;;11.30;99.90;;;11.88;52.69;96400.50;5228531;28;20327;-79
2021/01/21 09:39:19;;;;;;;1.90;1.80;;;11.30;99.90;;;12.20;52.54;96394.53;5228436;28;20227;-79
2021/01/21 09:41:51;;;;;;;2.15;2.05;;;11.60;99.90;;;12.34;52.36;96412.00;5244159;28;20574;-79
2021/01/21 09:44:23;;;;;;;4.40;2.22;;;11.90;99.90;;;12.42;52.41;96398.50;5230961;28;20221;-79
2021/01/21 09:46:55;;;;;;;2.00;1.90;;;12.00;99.90;;;12.40;53.29;96418.97;5233528;28;20195;-80
2021/01/21 09:49:29;;;;;;;1.77;1.60;;;11.90;99.90;;;12.38;52.15;96406.13;5248603;28;20220;-79
2021/01/21 09:52:01;;;;;;;2.00;1.90;;;11.90;99.90;;;12.28;52.22;96411.84;5242502;28;20196;-79
2021/01/21 09:54:33;;;;;;;1.75;1.70;;;11.80;99.90;;;12.34;52.58;96408.59;5248621;28;20227;-80
2021/01/21 09:57:06;;;;;;;1.80;1.70;;;11.80;99.90;;;12.35;53.03;96415.44;5247601;28;20226;-81
2021/01/21 09:59:39;;;;;;;1.60;1.50;;;11.80;99.90;;;12.41;52.87;96402.78;5247657;28;20218;-79
2021/01/21 10:02:11;;;;;;;1.52;1.52;;;11.80;99.90;;;12.33;52.38;96414.50;5242964;28;20205;-80
2021/01/21 10:04:44;;;;;;;1.40;1.40;;;11.70;99.90;;;12.30;53.58;96412.72;5227268;28;20295;-80
2021/01/21 10:07:16;;;;;;;1.40;1.40;;;11.50;99.90;;;12.31;52.77;96417.03;5243236;28;20663;-80
2021/01/21 10:09:48;;;;;;;1.80;1.70;;;11.60;99.90;;;12.17;53.91;96408.13;5247144;28;20197;-79
2021/01/21 10:12:20;;;;;;;1.40;1.40;;;11.50;99.90;;;12.15;53.89;96402.09;5241872;28;20243;-81
2021/01/21 10:14:52;;;;;;;1.70;1.60;;;11.40;99.90;;;12.21;52.42;96392.00;5242726;28;20221;-80
2021/01/21 10:17:25;;;;;;;1.17;1.17;;;11.50;99.90;;;12.09;53.94;96387.41;5247401;28;20205;-80
2021/01/21 10:19:58;;;;;;;2.03;1.67;;;11.40;99.90;;;11.97;54.63;96392.22;5247312;28;20248;-81
2021/01/21 10:22:31;;;;;;;1.48;1.48;;;11.20;99.90;;;11.98;54.06;96396.50;5246974;28;20454;-79
2021/01/21 10:25:04;;;;;;;2.00;1.90;;;11.10;99.90;;;11.87;54.71;96385.09;5246621;28;20220;-79
2021/01/21 10:27:36;;;;;;;1.67;1.60;;;11.00;99.90;;;11.83;54.57;96398.59;5246668;28;20586;-79
2021/01/21 10:30:10;;;;;;;1.42;1.30;;;11.00;99.90;;;11.81;55.43;96400.25;5247258;28;20280;-79
2021/01/21 10:32:42;;;;;;;1.63;1.52;;;11.00;99.90;;;11.68;56.82;96389.66;5247864;28;20200;-79
2021/01/21 10:35:15;;;;;;;1.80;1.70;;;10.90;99.90;;;11.70;56.55;96385.47;5247122;28;20231;-80
2021/01/21 10:37:47;;;;;;;1.63;1.60;;;10.90;99.90;;;11.79;55.58;96389.97;5248401;28;20295;-79
2021/01/21 10:40:19;;;;;;;1.60;1.50;;;11.00;99.90;;;11.83;56.08;96388.38;5246075;28;20290;-79
2021/01/21 10:42:51;;;;;;;1.70;1.60;;;11.00;99.90;;;11.84;56.22;96393.50;5246731;28;20215;-78
2021/01/21 10:45:23;;;;;;;1.30;1.30;;;11.10;99.90;;;12.04;55.66;96409.47;5246044;28;20224;-79
2021/01/21 10:47:55;;;;;;;1.42;1.42;;;11.20;99.90;;;12.31;54.30;96398.25;5245083;28;20285;-76
2021/01/21 10:50:28;;;;;;;1.85;1.75;;;11.40;99.90;;;12.37;54.87;96396.72;5247050;28;20197;-79
2021/01/21 10:53:00;;;;;;;1.92;1.80;;;11.50;99.90;;;12.21;55.65;96392.00;5245603;28;20202;-78
2021/01/21 10:55:32;;;;;;;1.75;1.65;;;11.50;99.90;;;12.38;55.51;96395.00;5246216;28;20605;-79
2021/01/21 10:58:06;;;;;;;1.50;1.40;;;11.60;99.90;;;12.69;53.47;96411.19;5243935;28;20197;-78
2021/01/21 11:00:38;;;;;;;1.75;1.65;;;11.90;99.90;;;12.83;53.99;96400.44;5235266;28;20209;-81
2021/01/21 11:03:10;;;;;;;1.42;1.42;;;12.20;99.90;;;13.03;53.04;96403.47;5244676;28;20222;-78